ITY1765 LICG-LIML
Flight info
| Callsign | ITY1765 |
|---|---|
| Flight time | 1h 20m |
| Altitude | 38000 |
| Route | ROBET DCT ERPEM DCT ROXAN DCT NEMIT DCT IDONA |
| Aircraft | A21N/M-SDE2E3FGHIRWXY/LB1 |
Departure
| Time | 2026-04-12 09:23 |
|---|---|
| Airport | Pantelleria Airport (LICG) |
Arrival
| Time | 2026-04-12 10:43 |
|---|---|
| Airport | Milano Linate Airport (LIML) |
| Time | Latitude | Longitude | Altitude | Speed | Heading |
|---|---|---|---|---|---|
| 2026-04-12 09:11 | 36.81776 | 11.96778 | 639 ft | 0 kts | 75° |
| 2026-04-12 09:19 | 36.81780 | 11.96794 | 642 ft | 6 kts | 73° |
| 2026-04-12 09:19 | 36.81790 | 11.96851 | 643 ft | 8 kts | 82° |
| 2026-04-12 09:19 | 36.81757 | 11.96919 | 644 ft | 11 kts | 128° |
| 2026-04-12 09:20 | 36.81638 | 11.96796 | 649 ft | 17 kts | 257° |
| 2026-04-12 09:20 | 36.81606 | 11.96642 | 650 ft | 19 kts | 254° |
| 2026-04-12 09:20 | 36.81535 | 11.96290 | 652 ft | 23 kts | 255° |
| 2026-04-12 09:21 | 36.81497 | 11.96100 | 657 ft | 23 kts | 254° |
| 2026-04-12 09:21 | 36.81457 | 11.95899 | 666 ft | 22 kts | 255° |
| 2026-04-12 09:21 | 36.81436 | 11.95711 | 671 ft | 13 kts | 226° |
| 2026-04-12 09:21 | 36.81423 | 11.95740 | 669 ft | 2 kts | 74° |
| 2026-04-12 09:22 | 36.81424 | 11.95743 | 668 ft | 0 kts | 71° |
| 2026-04-12 09:22 | 36.81436 | 11.95787 | 669 ft | 29 kts | 71° |
| 2026-04-12 09:22 | 36.81546 | 11.96455 | 650 ft | 123 kts | 75° |
| 2026-04-12 09:22 | 36.81837 | 11.97665 | 1135 ft | 152 kts | 79° |
| 2026-04-12 09:23 | 36.82145 | 11.98967 | 2207 ft | 162 kts | 86° |
| 2026-04-12 09:23 | 36.82344 | 12.00385 | 3060 ft | 173 kts | 90° |
| 2026-04-12 09:23 | 36.82614 | 12.01944 | 3616 ft | 194 kts | 85° |
| 2026-04-12 09:23 | 36.82981 | 12.03693 | 4031 ft | 228 kts | 76° |
| 2026-04-12 09:24 | 36.84039 | 12.05376 | 4396 ft | 270 kts | 41° |
| 2026-04-12 09:24 | 36.85882 | 12.06248 | 4929 ft | 299 kts | 7° |
| 2026-04-12 09:24 | 36.87965 | 12.05882 | 5674 ft | 309 kts | 338° |
| 2026-04-12 09:24 | 36.89917 | 12.04722 | 6551 ft | 312 kts | 332° |
| 2026-04-12 09:25 | 36.91872 | 12.03555 | 7542 ft | 311 kts | 335° |
| 2026-04-12 09:25 | 36.93871 | 12.02494 | 8481 ft | 315 kts | 337° |
| 2026-04-12 09:25 | 36.95922 | 12.01495 | 9384 ft | 319 kts | 338° |
| 2026-04-12 09:25 | 36.98025 | 12.00520 | 10106 ft | 330 kts | 339° |
| 2026-04-12 09:26 | 37.00248 | 11.99519 | 10605 ft | 348 kts | 339° |
| 2026-04-12 09:26 | 37.02576 | 11.98490 | 11220 ft | 359 kts | 340° |
| 2026-04-12 09:26 | 37.04970 | 11.97532 | 12061 ft | 364 kts | 346° |
| 2026-04-12 09:26 | 37.07483 | 11.97025 | 12895 ft | 369 kts | 352° |
| 2026-04-12 09:27 | 37.10043 | 11.96615 | 13712 ft | 373 kts | 352° |
| 2026-04-12 09:27 | 37.12640 | 11.96200 | 14457 ft | 378 kts | 352° |
| 2026-04-12 09:27 | 37.15261 | 11.95773 | 15129 ft | 384 kts | 351° |
| 2026-04-12 09:27 | 37.17933 | 11.95329 | 15843 ft | 389 kts | 351° |
| 2026-04-12 09:28 | 37.20628 | 11.94878 | 16580 ft | 393 kts | 351° |
| 2026-04-12 09:28 | 37.23350 | 11.94420 | 17290 ft | 397 kts | 351° |
| 2026-04-12 09:28 | 37.26068 | 11.93961 | 17977 ft | 402 kts | 350° |
| 2026-04-12 09:28 | 37.28862 | 11.93492 | 18588 ft | 407 kts | 350° |
| 2026-04-12 09:29 | 37.31683 | 11.93016 | 19224 ft | 410 kts | 350° |
| 2026-04-12 09:29 | 37.34555 | 11.92532 | 19839 ft | 414 kts | 350° |
| 2026-04-12 09:29 | 37.37383 | 11.92056 | 20454 ft | 416 kts | 350° |
| 2026-04-12 09:29 | 37.40265 | 11.91573 | 21085 ft | 419 kts | 350° |
| 2026-04-12 09:30 | 37.43167 | 11.91085 | 21694 ft | 422 kts | 350° |
| 2026-04-12 09:30 | 37.46091 | 11.90594 | 22286 ft | 426 kts | 349° |
| 2026-04-12 09:30 | 37.49043 | 11.90099 | 22856 ft | 429 kts | 349° |
| 2026-04-12 09:30 | 37.52014 | 11.89598 | 23383 ft | 432 kts | 349° |
| 2026-04-12 09:31 | 37.55007 | 11.89091 | 23818 ft | 435 kts | 349° |
| 2026-04-12 09:31 | 37.58020 | 11.88579 | 24232 ft | 438 kts | 349° |
| 2026-04-12 09:31 | 37.61056 | 11.88064 | 24675 ft | 440 kts | 350° |
| 2026-04-12 09:31 | 37.64108 | 11.87545 | 25164 ft | 443 kts | 350° |
| 2026-04-12 09:32 | 37.67173 | 11.87021 | 25636 ft | 445 kts | 350° |
| 2026-04-12 09:32 | 37.70249 | 11.86497 | 26097 ft | 448 kts | 350° |
| 2026-04-12 09:32 | 37.73351 | 11.85970 | 26538 ft | 451 kts | 350° |
| 2026-04-12 09:32 | 37.76466 | 11.85439 | 26965 ft | 454 kts | 350° |
| 2026-04-12 09:33 | 37.79605 | 11.84901 | 27387 ft | 456 kts | 350° |
| 2026-04-12 09:33 | 37.82759 | 11.84362 | 27790 ft | 459 kts | 351° |
| 2026-04-12 09:33 | 37.85934 | 11.83819 | 28183 ft | 462 kts | 351° |
| 2026-04-12 09:33 | 37.89124 | 11.83273 | 28578 ft | 464 kts | 351° |
| 2026-04-12 09:34 | 37.92295 | 11.82731 | 28953 ft | 467 kts | 351° |
| 2026-04-12 09:34 | 37.95522 | 11.82180 | 29323 ft | 469 kts | 351° |
| 2026-04-12 09:34 | 37.98766 | 11.81623 | 29705 ft | 472 kts | 351° |
| 2026-04-12 09:34 | 38.02071 | 11.81052 | 30046 ft | 474 kts | 351° |
| 2026-04-12 09:35 | 38.05297 | 11.80492 | 30347 ft | 476 kts | 351° |
| 2026-04-12 09:35 | 38.08595 | 11.79920 | 30698 ft | 478 kts | 351° |
| 2026-04-12 09:35 | 38.11896 | 11.79350 | 31025 ft | 479 kts | 351° |
| 2026-04-12 09:35 | 38.15204 | 11.78783 | 31343 ft | 481 kts | 351° |
| 2026-04-12 09:36 | 38.18526 | 11.78201 | 31645 ft | 483 kts | 351° |
| 2026-04-12 09:36 | 38.21868 | 11.77621 | 31935 ft | 485 kts | 351° |
| 2026-04-12 09:36 | 38.25218 | 11.77044 | 32219 ft | 487 kts | 351° |
| 2026-04-12 09:36 | 38.28592 | 11.76465 | 32508 ft | 489 kts | 351° |
| 2026-04-12 09:37 | 38.31961 | 11.75888 | 32862 ft | 488 kts | 352° |
| 2026-04-12 09:37 | 38.35312 | 11.75309 | 33324 ft | 485 kts | 351° |
| 2026-04-12 09:37 | 38.38656 | 11.74727 | 33702 ft | 483 kts | 351° |
| 2026-04-12 09:37 | 38.41991 | 11.74148 | 34001 ft | 483 kts | 351° |
| 2026-04-12 09:38 | 38.45316 | 11.73570 | 34245 ft | 483 kts | 351° |
| 2026-04-12 09:38 | 38.48655 | 11.72988 | 34470 ft | 484 kts | 351° |
| 2026-04-12 09:38 | 38.51994 | 11.72404 | 34694 ft | 484 kts | 351° |
| 2026-04-12 09:38 | 38.55332 | 11.71821 | 34944 ft | 484 kts | 351° |
| 2026-04-12 09:39 | 38.58670 | 11.71237 | 35170 ft | 484 kts | 350° |
| 2026-04-12 09:39 | 38.62009 | 11.70651 | 35379 ft | 484 kts | 350° |
| 2026-04-12 09:39 | 38.65313 | 11.70075 | 35584 ft | 484 kts | 350° |
| 2026-04-12 09:39 | 38.68694 | 11.69482 | 35776 ft | 485 kts | 350° |
| 2026-04-12 09:40 | 38.72003 | 11.68902 | 35977 ft | 485 kts | 350° |
| 2026-04-12 09:40 | 38.75348 | 11.68317 | 36159 ft | 485 kts | 349° |
| 2026-04-12 09:40 | 38.78694 | 11.67729 | 36353 ft | 485 kts | 349° |
| 2026-04-12 09:40 | 38.82043 | 11.67140 | 36572 ft | 486 kts | 350° |
| 2026-04-12 09:41 | 38.85385 | 11.66551 | 36726 ft | 486 kts | 350° |
| 2026-04-12 09:41 | 38.88746 | 11.65959 | 36889 ft | 487 kts | 349° |
| 2026-04-12 09:41 | 38.92099 | 11.65369 | 37062 ft | 487 kts | 349° |
| 2026-04-12 09:41 | 38.95453 | 11.64715 | 37225 ft | 486 kts | 347° |
| 2026-04-12 09:42 | 38.98784 | 11.63965 | 37391 ft | 486 kts | 347° |
| 2026-04-12 09:42 | 39.02119 | 11.63210 | 37582 ft | 485 kts | 347° |
| 2026-04-12 09:42 | 39.05442 | 11.62470 | 37797 ft | 484 kts | 347° |
| 2026-04-12 09:43 | 39.18698 | 11.59508 | 37845 ft | 483 kts | 347° |
| 2026-04-12 09:44 | 39.25313 | 11.58034 | 37853 ft | 481 kts | 348° |
| 2026-04-12 09:44 | 39.31891 | 11.56553 | 37849 ft | 479 kts | 347° |
| 2026-04-12 09:45 | 39.38456 | 11.55063 | 37852 ft | 479 kts | 347° |
| 2026-04-12 09:45 | 39.45025 | 11.53571 | 37849 ft | 479 kts | 347° |
| 2026-04-12 09:46 | 39.51574 | 11.52104 | 37854 ft | 476 kts | 348° |
| 2026-04-12 09:46 | 39.58105 | 11.50620 | 37863 ft | 477 kts | 348° |
| 2026-04-12 09:47 | 39.64634 | 11.49138 | 37866 ft | 477 kts | 348° |
| 2026-04-12 09:47 | 39.71128 | 11.47657 | 37866 ft | 475 kts | 348° |
| 2026-04-12 09:48 | 39.77638 | 11.46169 | 37869 ft | 475 kts | 348° |
| 2026-04-12 09:48 | 39.84143 | 11.44680 | 37872 ft | 475 kts | 348° |
| 2026-04-12 09:49 | 39.90660 | 11.43189 | 37873 ft | 475 kts | 348° |
| 2026-04-12 09:49 | 39.96089 | 11.41945 | 37874 ft | 471 kts | 348° |
| 2026-04-12 09:50 | 40.02499 | 11.40471 | 37882 ft | 471 kts | 348° |
| 2026-04-12 09:50 | 40.08956 | 11.38984 | 37882 ft | 471 kts | 348° |
| 2026-04-12 09:51 | 40.15409 | 11.37495 | 37888 ft | 471 kts | 348° |
| 2026-04-12 09:51 | 40.21860 | 11.36002 | 37888 ft | 471 kts | 348° |
| 2026-04-12 09:52 | 40.28317 | 11.34501 | 37888 ft | 471 kts | 348° |
| 2026-04-12 09:52 | 40.34779 | 11.33006 | 37890 ft | 471 kts | 348° |
| 2026-04-12 09:53 | 40.41183 | 11.31518 | 37892 ft | 465 kts | 348° |
| 2026-04-12 09:53 | 40.47564 | 11.30028 | 37909 ft | 467 kts | 348° |
| 2026-04-12 09:54 | 40.53977 | 11.28522 | 37900 ft | 469 kts | 348° |
| 2026-04-12 09:54 | 40.60403 | 11.27011 | 37900 ft | 467 kts | 348° |
| 2026-04-12 09:55 | 40.66791 | 11.25521 | 37902 ft | 467 kts | 348° |
| 2026-04-12 09:55 | 40.73190 | 11.24027 | 37903 ft | 467 kts | 348° |
| 2026-04-12 09:56 | 40.79582 | 11.22522 | 37900 ft | 467 kts | 348° |
| 2026-04-12 09:56 | 40.85709 | 11.20124 | 37903 ft | 461 kts | 334° |
| 2026-04-12 09:57 | 40.91564 | 11.16525 | 37901 ft | 461 kts | 332° |
| 2026-04-12 09:57 | 40.97344 | 11.12951 | 37905 ft | 461 kts | 333° |
| 2026-04-12 09:58 | 41.03176 | 11.09372 | 37914 ft | 461 kts | 332° |
| 2026-04-12 09:58 | 41.08986 | 11.05808 | 37908 ft | 460 kts | 332° |
| 2026-04-12 09:59 | 41.14790 | 11.02223 | 37911 ft | 460 kts | 332° |
| 2026-04-12 09:59 | 41.20598 | 10.98657 | 37912 ft | 460 kts | 332° |
| 2026-04-12 10:00 | 41.26396 | 10.95079 | 37919 ft | 458 kts | 332° |
| 2026-04-12 10:00 | 41.32159 | 10.91506 | 37916 ft | 456 kts | 332° |
| 2026-04-12 10:01 | 41.37914 | 10.87939 | 37921 ft | 456 kts | 332° |
| 2026-04-12 10:01 | 41.43679 | 10.84366 | 37916 ft | 456 kts | 332° |
| 2026-04-12 10:02 | 41.49394 | 10.80814 | 37926 ft | 455 kts | 332° |
| 2026-04-12 10:02 | 41.55126 | 10.77235 | 37921 ft | 455 kts | 332° |
| 2026-04-12 10:03 | 41.60895 | 10.73630 | 37921 ft | 455 kts | 332° |
| 2026-04-12 10:03 | 41.66590 | 10.70065 | 37920 ft | 455 kts | 332° |
| 2026-04-12 10:04 | 41.72317 | 10.66470 | 37930 ft | 453 kts | 331° |
| 2026-04-12 10:04 | 41.78009 | 10.62898 | 37927 ft | 452 kts | 331° |
| 2026-04-12 10:05 | 41.83698 | 10.59317 | 37927 ft | 452 kts | 331° |
| 2026-04-12 10:05 | 41.89395 | 10.55716 | 37937 ft | 454 kts | 332° |
| 2026-04-12 10:06 | 41.95319 | 10.52703 | 37935 ft | 457 kts | 341° |
| 2026-04-12 10:06 | 42.01450 | 10.50450 | 37932 ft | 457 kts | 342° |
| 2026-04-12 10:07 | 42.07585 | 10.48201 | 37933 ft | 457 kts | 342° |
| 2026-04-12 10:07 | 42.13713 | 10.45946 | 37933 ft | 457 kts | 342° |
| 2026-04-12 10:08 | 42.19800 | 10.43703 | 37932 ft | 451 kts | 342° |
| 2026-04-12 10:08 | 42.25853 | 10.41457 | 37933 ft | 451 kts | 342° |
| 2026-04-12 10:09 | 42.31918 | 10.39194 | 37935 ft | 451 kts | 341° |
| 2026-04-12 10:09 | 42.37980 | 10.36907 | 37935 ft | 451 kts | 342° |
| 2026-04-12 10:10 | 42.43999 | 10.34653 | 37935 ft | 451 kts | 342° |
| 2026-04-12 10:10 | 42.50062 | 10.32397 | 37935 ft | 451 kts | 342° |
| 2026-04-12 10:11 | 42.56122 | 10.30123 | 37945 ft | 452 kts | 342° |
| 2026-04-12 10:11 | 42.62166 | 10.27860 | 37938 ft | 450 kts | 342° |
| 2026-04-12 10:12 | 42.68210 | 10.25622 | 37935 ft | 450 kts | 342° |
| 2026-04-12 10:12 | 42.74258 | 10.23356 | 37935 ft | 450 kts | 342° |
| 2026-04-12 10:13 | 42.80292 | 10.21073 | 37941 ft | 450 kts | 342° |
| 2026-04-12 10:13 | 42.83283 | 10.19946 | 37673 ft | 448 kts | 342° |
| 2026-04-12 10:13 | 42.86301 | 10.18800 | 37386 ft | 452 kts | 342° |
| 2026-04-12 10:13 | 42.89335 | 10.17649 | 37108 ft | 452 kts | 342° |
| 2026-04-12 10:14 | 42.92365 | 10.16502 | 36830 ft | 452 kts | 342° |
| 2026-04-12 10:14 | 42.95381 | 10.15347 | 36561 ft | 450 kts | 342° |
| 2026-04-12 10:14 | 42.98395 | 10.14192 | 36298 ft | 449 kts | 342° |
| 2026-04-12 10:14 | 43.01397 | 10.13046 | 36032 ft | 448 kts | 342° |
| 2026-04-12 10:15 | 43.04392 | 10.11906 | 35776 ft | 446 kts | 342° |
| 2026-04-12 10:15 | 43.07387 | 10.10778 | 35521 ft | 445 kts | 342° |
| 2026-04-12 10:15 | 43.10361 | 10.09638 | 35267 ft | 443 kts | 342° |
| 2026-04-12 10:15 | 43.13336 | 10.08511 | 35015 ft | 442 kts | 342° |
| 2026-04-12 10:16 | 43.16295 | 10.07386 | 34768 ft | 440 kts | 342° |
| 2026-04-12 10:16 | 43.19239 | 10.06265 | 34527 ft | 438 kts | 342° |
| 2026-04-12 10:16 | 43.22164 | 10.05147 | 34285 ft | 435 kts | 342° |
| 2026-04-12 10:16 | 43.25071 | 10.04028 | 34040 ft | 433 kts | 342° |
| 2026-04-12 10:17 | 43.27976 | 10.02913 | 33776 ft | 432 kts | 342° |
| 2026-04-12 10:17 | 43.30860 | 10.01807 | 33502 ft | 430 kts | 342° |
| 2026-04-12 10:17 | 43.33741 | 10.00701 | 33228 ft | 428 kts | 342° |
| 2026-04-12 10:17 | 43.36605 | 9.99589 | 32961 ft | 427 kts | 342° |
| 2026-04-12 10:18 | 43.39424 | 9.98493 | 32699 ft | 425 kts | 342° |
| 2026-04-12 10:18 | 43.42271 | 9.97395 | 32439 ft | 423 kts | 342° |
| 2026-04-12 10:18 | 43.45091 | 9.96309 | 32083 ft | 420 kts | 342° |
| 2026-04-12 10:18 | 43.47900 | 9.95228 | 31623 ft | 417 kts | 342° |
| 2026-04-12 10:19 | 43.50689 | 9.94149 | 31145 ft | 416 kts | 341° |
| 2026-04-12 10:19 | 43.53471 | 9.93072 | 30665 ft | 414 kts | 341° |
| 2026-04-12 10:19 | 43.56241 | 9.92006 | 30214 ft | 412 kts | 342° |
| 2026-04-12 10:19 | 43.58995 | 9.90943 | 29716 ft | 410 kts | 342° |
| 2026-04-12 10:20 | 43.61745 | 9.89878 | 29189 ft | 409 kts | 342° |
| 2026-04-12 10:20 | 43.64475 | 9.88818 | 28685 ft | 406 kts | 342° |
| 2026-04-12 10:20 | 43.67184 | 9.87765 | 28212 ft | 404 kts | 342° |
| 2026-04-12 10:20 | 43.69882 | 9.86717 | 27736 ft | 401 kts | 342° |
| 2026-04-12 10:21 | 43.72557 | 9.85677 | 27288 ft | 398 kts | 342° |
| 2026-04-12 10:21 | 43.75221 | 9.84641 | 26812 ft | 396 kts | 342° |
| 2026-04-12 10:21 | 43.77872 | 9.83601 | 26347 ft | 395 kts | 342° |
| 2026-04-12 10:21 | 43.80509 | 9.82571 | 25901 ft | 393 kts | 342° |
| 2026-04-12 10:22 | 43.83137 | 9.81544 | 25466 ft | 392 kts | 342° |
| 2026-04-12 10:22 | 43.85754 | 9.80515 | 25024 ft | 390 kts | 342° |
| 2026-04-12 10:22 | 43.88364 | 9.79495 | 24559 ft | 390 kts | 342° |
| 2026-04-12 10:22 | 43.90971 | 9.78470 | 24099 ft | 389 kts | 343° |
| 2026-04-12 10:23 | 43.93578 | 9.77449 | 23647 ft | 389 kts | 343° |
| 2026-04-12 10:23 | 43.96177 | 9.76431 | 23139 ft | 388 kts | 343° |
| 2026-04-12 10:23 | 43.98773 | 9.75414 | 22650 ft | 387 kts | 343° |
| 2026-04-12 10:23 | 44.01327 | 9.74410 | 22152 ft | 385 kts | 343° |
| 2026-04-12 10:24 | 44.03896 | 9.73397 | 21688 ft | 383 kts | 343° |
| 2026-04-12 10:24 | 44.06488 | 9.72374 | 21217 ft | 382 kts | 343° |
| 2026-04-12 10:24 | 44.09009 | 9.71378 | 20755 ft | 380 kts | 342° |
| 2026-04-12 10:24 | 44.11545 | 9.70370 | 20317 ft | 378 kts | 343° |
| 2026-04-12 10:25 | 44.14068 | 9.69373 | 19897 ft | 376 kts | 343° |
| 2026-04-12 10:25 | 44.16569 | 9.68387 | 19476 ft | 372 kts | 343° |
| 2026-04-12 10:25 | 44.19046 | 9.67408 | 19052 ft | 368 kts | 343° |
| 2026-04-12 10:25 | 44.21496 | 9.66439 | 18658 ft | 364 kts | 342° |
| 2026-04-12 10:26 | 44.23921 | 9.65474 | 18269 ft | 361 kts | 342° |
| 2026-04-12 10:26 | 44.26322 | 9.64519 | 17833 ft | 357 kts | 343° |
| 2026-04-12 10:26 | 44.28701 | 9.63575 | 17426 ft | 353 kts | 343° |
| 2026-04-12 10:26 | 44.31054 | 9.62635 | 17014 ft | 349 kts | 343° |
| 2026-04-12 10:27 | 44.33377 | 9.61711 | 16631 ft | 345 kts | 343° |
| 2026-04-12 10:27 | 44.35670 | 9.60800 | 16271 ft | 340 kts | 343° |
| 2026-04-12 10:27 | 44.37934 | 9.59898 | 15935 ft | 337 kts | 343° |
| 2026-04-12 10:27 | 44.40193 | 9.58999 | 15596 ft | 337 kts | 343° |
| 2026-04-12 10:28 | 44.42421 | 9.58110 | 15268 ft | 338 kts | 343° |
| 2026-04-12 10:28 | 44.44710 | 9.57196 | 14918 ft | 338 kts | 344° |
| 2026-04-12 10:28 | 44.46973 | 9.56291 | 14565 ft | 339 kts | 343° |
| 2026-04-12 10:28 | 44.49214 | 9.55392 | 14222 ft | 340 kts | 344° |
| 2026-04-12 10:29 | 44.51516 | 9.54464 | 13869 ft | 340 kts | 344° |
| 2026-04-12 10:29 | 44.53764 | 9.53563 | 13493 ft | 341 kts | 344° |
| 2026-04-12 10:29 | 44.56040 | 9.52652 | 13114 ft | 339 kts | 344° |
| 2026-04-12 10:29 | 44.58294 | 9.51746 | 12732 ft | 334 kts | 344° |
| 2026-04-12 10:30 | 44.60513 | 9.50855 | 12394 ft | 330 kts | 344° |
| 2026-04-12 10:30 | 44.62701 | 9.49977 | 12051 ft | 324 kts | 343° |
| 2026-04-12 10:30 | 44.64853 | 9.49112 | 11719 ft | 319 kts | 344° |
| 2026-04-12 10:30 | 44.66980 | 9.48255 | 11400 ft | 315 kts | 344° |
| 2026-04-12 10:31 | 44.69077 | 9.47409 | 11080 ft | 312 kts | 344° |
| 2026-04-12 10:31 | 44.71150 | 9.46573 | 10747 ft | 309 kts | 344° |
| 2026-04-12 10:31 | 44.73201 | 9.45745 | 10422 ft | 305 kts | 344° |
| 2026-04-12 10:31 | 44.75239 | 9.44922 | 10118 ft | 304 kts | 344° |
| 2026-04-12 10:32 | 44.77273 | 9.44097 | 9823 ft | 305 kts | 344° |
| 2026-04-12 10:32 | 44.79311 | 9.43273 | 9469 ft | 304 kts | 345° |
| 2026-04-12 10:32 | 44.81364 | 9.42594 | 9096 ft | 302 kts | 348° |
| 2026-04-12 10:32 | 44.83409 | 9.41993 | 8740 ft | 299 kts | 348° |
| 2026-04-12 10:33 | 44.84782 | 9.41591 | 8514 ft | 297 kts | 348° |
| 2026-04-12 10:33 | 44.86808 | 9.40990 | 8184 ft | 297 kts | 348° |
| 2026-04-12 10:33 | 44.88819 | 9.40389 | 7864 ft | 295 kts | 348° |
| 2026-04-12 10:33 | 44.90801 | 9.39793 | 7566 ft | 293 kts | 348° |
| 2026-04-12 10:34 | 44.92784 | 9.39195 | 7280 ft | 289 kts | 348° |
| 2026-04-12 10:34 | 44.94775 | 9.38593 | 6971 ft | 288 kts | 347° |
| 2026-04-12 10:34 | 44.96725 | 9.38002 | 6654 ft | 286 kts | 347° |
| 2026-04-12 10:34 | 44.98664 | 9.37412 | 6304 ft | 285 kts | 347° |
| 2026-04-12 10:35 | 45.00601 | 9.36822 | 5998 ft | 283 kts | 348° |
| 2026-04-12 10:35 | 45.02519 | 9.36240 | 5676 ft | 280 kts | 348° |
| 2026-04-12 10:35 | 45.04420 | 9.35662 | 5346 ft | 280 kts | 349° |
| 2026-04-12 10:35 | 45.06327 | 9.35083 | 5037 ft | 280 kts | 350° |
| 2026-04-12 10:36 | 45.08208 | 9.34512 | 4732 ft | 279 kts | 349° |
| 2026-04-12 10:36 | 45.10094 | 9.33938 | 4414 ft | 276 kts | 349° |
| 2026-04-12 10:36 | 45.11960 | 9.33370 | 4107 ft | 273 kts | 350° |
| 2026-04-12 10:36 | 45.13786 | 9.32815 | 3915 ft | 264 kts | 350° |
| 2026-04-12 10:37 | 45.15553 | 9.32277 | 3782 ft | 255 kts | 351° |
| 2026-04-12 10:37 | 45.17261 | 9.31758 | 3778 ft | 240 kts | 351° |
| 2026-04-12 10:37 | 45.18856 | 9.31272 | 3827 ft | 236 kts | 350° |
| 2026-04-12 10:37 | 45.20458 | 9.30786 | 3758 ft | 235 kts | 351° |
| 2026-04-12 10:38 | 45.22057 | 9.30299 | 3799 ft | 235 kts | 351° |
| 2026-04-12 10:38 | 45.23661 | 9.29935 | 3630 ft | 230 kts | 359° |
| 2026-04-12 10:38 | 45.25244 | 9.29798 | 3484 ft | 219 kts | 1° |
| 2026-04-12 10:38 | 45.26722 | 9.29629 | 3222 ft | 208 kts | 1° |
| 2026-04-12 10:39 | 45.28156 | 9.29476 | 3001 ft | 206 kts | 1° |
| 2026-04-12 10:39 | 45.29594 | 9.29322 | 2982 ft | 207 kts | 0° |
| 2026-04-12 10:39 | 45.31034 | 9.29166 | 2862 ft | 207 kts | 0° |
| 2026-04-12 10:39 | 45.32428 | 9.29015 | 2647 ft | 191 kts | 1° |
| 2026-04-12 10:40 | 45.33678 | 9.28881 | 2455 ft | 168 kts | 2° |
| 2026-04-12 10:40 | 45.34750 | 9.28766 | 2198 ft | 144 kts | 3° |
| 2026-04-12 10:40 | 45.35723 | 9.28664 | 1948 ft | 139 kts | 3° |
| 2026-04-12 10:40 | 45.36684 | 9.28550 | 1745 ft | 138 kts | 2° |
| 2026-04-12 10:41 | 45.37645 | 9.28427 | 1559 ft | 140 kts | 1° |
| 2026-04-12 10:41 | 45.38609 | 9.28324 | 1455 ft | 137 kts | 2° |
| 2026-04-12 10:41 | 45.39554 | 9.28221 | 1148 ft | 135 kts | 0° |
| 2026-04-12 10:41 | 45.40497 | 9.28144 | 1062 ft | 135 kts | 3° |
| 2026-04-12 10:42 | 45.41443 | 9.28038 | 854 ft | 136 kts | 357° |
| 2026-04-12 10:42 | 45.42399 | 9.27896 | 639 ft | 139 kts | 5° |
| 2026-04-12 10:42 | 45.43352 | 9.27826 | 426 ft | 137 kts | 0° |
| 2026-04-12 10:42 | 45.44289 | 9.27726 | 368 ft | 127 kts | 0° |
| 2026-04-12 10:43 | 45.45271 | 9.27641 | 364 ft | 23 kts | 16° |
| 2026-04-12 10:43 | 45.45420 | 9.27743 | 368 ft | 25 kts | 37° |
| 2026-04-12 10:43 | 45.45562 | 9.27813 | 365 ft | 23 kts | 1° |
| 2026-04-12 10:44 | 45.45725 | 9.27817 | 365 ft | 24 kts | 0° |
| 2026-04-12 10:44 | 45.45880 | 9.27821 | 367 ft | 22 kts | 35° |
| 2026-04-12 10:44 | 45.45947 | 9.27849 | 365 ft | 5 kts | 357° |
| 2026-04-12 10:44 | 45.45964 | 9.27848 | 371 ft | 0 kts | 358° |